createdAt,value
2022-10-23T00:01:43.653Z,13.49
2022-10-23T00:04:19.511Z,13.52
2022-10-23T00:06:47.143Z,13.51
2022-10-23T00:09:17.828Z,13.54
2022-10-23T00:11:47.865Z,13.37
2022-10-23T00:14:16.045Z,13.50
2022-10-23T00:16:42.666Z,13.38
2022-10-23T00:19:09.321Z,13.50
2022-10-23T00:21:39.692Z,13.48
2022-10-23T00:26:40.669Z,13.38
2022-10-23T00:29:08.689Z,13.34
2022-10-23T00:31:35.507Z,13.41
2022-10-23T00:34:02.454Z,13.39
2022-10-23T00:36:29.127Z,13.37
2022-10-23T00:38:56.181Z,13.31
2022-10-23T00:41:28.539Z,13.38
2022-10-23T00:44:01.596Z,13.44
2022-10-23T00:46:29.023Z,13.40
2022-10-23T00:48:56.104Z,13.45
2022-10-23T00:51:25.917Z,13.32
2022-10-23T00:54:23.436Z,13.45
2022-10-23T00:56:58.104Z,13.42
2022-10-23T00:59:25.263Z,13.41
2022-10-23T01:01:52.218Z,13.46
2022-10-23T01:04:19.739Z,13.33
2022-10-23T01:06:52.431Z,13.47
2022-10-23T01:09:42.141Z,13.38
2022-10-23T01:12:27.025Z,13.48
2022-10-23T01:14:56.364Z,13.47
2022-10-23T01:17:35.159Z,13.32
2022-10-23T01:20:11.426Z,13.45
2022-10-23T01:23:00.280Z,13.47
2022-10-23T01:25:30.129Z,13.46
2022-10-23T01:28:04.995Z,13.41
2022-10-23T01:30:37.881Z,13.39
2022-10-23T01:33:13.844Z,13.30
2022-10-23T01:35:54.832Z,13.25
2022-10-23T01:38:27.682Z,13.40
2022-10-23T01:41:39.985Z,13.36
2022-10-23T01:44:15.146Z,13.33
2022-10-23T01:46:43.921Z,13.17
2022-10-23T01:49:13.108Z,13.32
2022-10-23T01:51:43.436Z,13.31
2022-10-23T01:54:13.669Z,13.10
2022-10-23T01:56:44.130Z,13.30
2022-10-23T01:59:20.184Z,13.17
2022-10-23T02:01:50.990Z,13.28
2022-10-23T02:04:28.065Z,13.28
2022-10-23T02:06:54.881Z,13.22
2022-10-23T02:09:21.634Z,13.12
2022-10-23T02:11:58.810Z,13.14
2022-10-23T02:14:43.999Z,13.15
2022-10-23T02:17:55.911Z,13.09
2022-10-23T02:20:25.102Z,13.07
2022-10-23T02:23:11.882Z,12.86
2022-10-23T02:25:51.335Z,12.95
2022-10-23T02:28:23.784Z,12.98
2022-10-23T02:30:50.835Z,12.94
2022-10-23T02:33:19.014Z,12.93
2022-10-23T02:35:49.511Z,12.94
2022-10-23T02:38:37.721Z,12.82
2022-10-23T02:41:17.150Z,12.90
2022-10-23T02:44:02.334Z,12.88
2022-10-23T02:46:28.882Z,12.87
2022-10-23T02:49:13.754Z,12.75
2022-10-23T02:51:51.345Z,12.86
2022-10-23T02:54:27.922Z,12.70
2022-10-23T02:57:06.169Z,12.88
2022-10-23T02:59:45.710Z,12.75
2022-10-23T03:02:21.857Z,12.92
2022-10-23T03:04:50.237Z,12.91
2022-10-23T03:07:19.477Z,12.74
2022-10-23T03:09:46.973Z,12.78
2022-10-23T03:12:14.019Z,12.93
2022-10-23T03:14:42.964Z,12.78
2022-10-23T03:17:10.561Z,12.93
2022-10-23T03:19:39.015Z,12.93
2022-10-23T03:22:05.841Z,12.89
2022-10-23T03:24:32.736Z,12.92
2022-10-23T03:26:59.401Z,12.92
2022-10-23T03:29:26.215Z,12.94
2022-10-23T03:31:53.399Z,12.81
2022-10-23T03:34:20.110Z,12.96
2022-10-23T03:36:46.779Z,12.90
2022-10-23T03:39:18.624Z,12.93
2022-10-23T03:41:48.450Z,12.88
2022-10-23T03:44:15.193Z,12.90
2022-10-23T03:46:41.787Z,12.91
2022-10-23T03:49:11.770Z,12.89
2022-10-23T03:51:41.858Z,12.92
2022-10-23T03:54:11.258Z,12.94
2022-10-23T03:56:38.234Z,12.79
2022-10-23T03:59:05.023Z,12.97
2022-10-23T04:01:31.656Z,12.99
2022-10-23T04:03:58.292Z,13.02
2022-10-23T04:06:24.881Z,13.00
2022-10-23T04:08:51.918Z,13.02
2022-10-23T04:11:18.522Z,13.01
2022-10-23T04:13:45.299Z,12.86
2022-10-23T04:16:12.068Z,13.02
2022-10-23T04:18:40.887Z,12.89
2022-10-23T04:21:07.712Z,13.05
2022-10-23T04:23:34.602Z,13.05
2022-10-23T04:26:01.795Z,13.06
2022-10-23T04:28:28.508Z,12.94
2022-10-23T04:30:55.141Z,13.13
2022-10-23T04:33:27.472Z,13.09
2022-10-23T04:35:54.123Z,13.07
2022-10-23T04:38:20.870Z,13.13
2022-10-23T04:40:47.663Z,13.13
2022-10-23T04:43:14.268Z,13.12
2022-10-23T04:45:43.131Z,13.03
2022-10-23T04:48:12.038Z,13.06
2022-10-23T04:50:38.666Z,13.26
2022-10-23T04:53:05.286Z,13.27
2022-10-23T04:55:36.629Z,13.25
2022-10-23T04:58:05.735Z,13.28
2022-10-23T05:00:32.591Z,13.27
2022-10-23T05:03:04.096Z,13.24
2022-10-23T05:05:30.888Z,13.24
2022-10-23T05:07:59.887Z,13.20
2022-10-23T05:10:26.603Z,13.07
2022-10-23T05:12:53.288Z,13.21
2022-10-23T05:15:19.896Z,13.03
2022-10-23T05:17:49.485Z,13.06
2022-10-23T05:20:20.576Z,13.02
2022-10-23T05:22:51.354Z,13.19
2022-10-23T05:25:18.671Z,13.14
2022-10-23T05:27:45.821Z,12.96
2022-10-23T05:30:13.277Z,13.14
2022-10-23T05:32:40.932Z,13.12
2022-10-23T05:35:11.715Z,12.96
2022-10-23T05:37:41.688Z,13.10
2022-10-23T05:40:09.098Z,13.10
2022-10-23T05:42:38.259Z,13.10
2022-10-23T05:45:10.975Z,13.08
2022-10-23T05:47:37.801Z,13.14
2022-10-23T05:50:04.919Z,13.13
2022-10-23T05:52:31.642Z,13.10
2022-10-23T05:54:58.198Z,13.07
2022-10-23T05:57:24.804Z,13.11
2022-10-23T05:59:51.565Z,13.02
2022-10-23T06:02:18.739Z,13.10
2022-10-23T06:04:45.468Z,12.94
2022-10-23T06:07:12.104Z,12.94
2022-10-23T06:09:38.950Z,13.02
2022-10-23T06:12:08.905Z,12.99
2022-10-23T06:14:35.720Z,13.04
2022-10-23T06:17:02.342Z,12.92
2022-10-23T06:19:28.983Z,13.11
2022-10-23T06:21:55.792Z,13.14
2022-10-23T06:24:22.616Z,13.13
2022-10-23T06:26:49.614Z,13.05
2022-10-23T06:29:16.404Z,13.03
2022-10-23T06:31:45.544Z,13.08
2022-10-23T06:34:12.834Z,13.21
2022-10-23T06:36:39.636Z,13.16
2022-10-23T06:39:06.903Z,13.14
2022-10-23T06:41:36.064Z,13.27
2022-10-23T06:44:02.995Z,13.29
2022-10-23T06:46:33.218Z,13.11
2022-10-23T06:49:02.360Z,13.32
2022-10-23T06:51:29.826Z,13.21
2022-10-23T06:53:57.175Z,13.27
2022-10-23T06:56:25.336Z,13.37
2022-10-23T06:58:52.212Z,13.40
2022-10-23T07:01:19.093Z,13.40
2022-10-23T07:03:48.833Z,13.41
2022-10-23T07:06:17.976Z,13.26
2022-10-23T07:08:44.710Z,13.47
2022-10-23T07:11:14.536Z,13.45
2022-10-23T07:13:42.185Z,13.55
2022-10-23T07:16:17.425Z,13.39
2022-10-23T07:18:44.550Z,13.63
2022-10-23T07:21:11.601Z,13.57
2022-10-23T07:23:38.630Z,13.59
2022-10-23T07:26:14.609Z,13.65
2022-10-23T07:28:46.613Z,13.59
2022-10-23T07:31:13.569Z,13.63
2022-10-23T07:33:40.355Z,13.81
2022-10-23T07:36:08.589Z,13.84
2022-10-23T07:38:37.941Z,13.88
2022-10-23T07:41:06.863Z,13.78
2022-10-23T07:43:35.724Z,13.81
2022-10-23T07:46:02.668Z,13.85
2022-10-23T07:48:29.324Z,14.05
2022-10-23T07:51:01.641Z,14.10
2022-10-23T07:53:28.653Z,14.08
2022-10-23T07:56:02.661Z,14.16
2022-10-23T07:58:30.091Z,14.13
2022-10-23T08:00:59.304Z,14.20
2022-10-23T08:03:33.317Z,14.22
2022-10-23T08:06:00.460Z,14.33
2022-10-23T08:08:27.914Z,14.30
2022-10-23T08:10:57.736Z,14.33
2022-10-23T08:13:24.727Z,14.47
2022-10-23T08:15:53.947Z,14.55
2022-10-23T08:18:23.020Z,14.49
2022-10-23T08:20:52.370Z,14.60
2022-10-23T08:23:20.262Z,14.73
2022-10-23T08:25:47.759Z,14.73
2022-10-23T08:28:16.991Z,14.75
2022-10-23T08:30:43.625Z,15.05
2022-10-23T08:33:12.576Z,15.00
2022-10-23T08:35:40.511Z,15.26
2022-10-23T08:38:07.876Z,15.37
2022-10-23T08:40:38.398Z,15.44
2022-10-23T08:43:11.011Z,15.52
2022-10-23T08:45:47.698Z,15.51
2022-10-23T08:48:28.616Z,15.54
2022-10-23T08:51:11.695Z,15.45
2022-10-23T08:53:56.279Z,15.35
2022-10-23T08:56:27.229Z,15.30
2022-10-23T08:58:56.128Z,15.45
2022-10-23T09:01:47.131Z,15.45
2022-10-23T09:04:15.463Z,15.34
2022-10-23T09:06:42.715Z,15.51
2022-10-23T09:09:28.755Z,15.47
2022-10-23T09:12:11.002Z,15.58
2022-10-23T09:15:06.970Z,15.58
2022-10-23T09:17:38.153Z,15.58
2022-10-23T09:20:25.723Z,15.61
2022-10-23T09:23:00.438Z,15.61
2022-10-23T09:25:29.976Z,15.65
2022-10-23T09:28:05.321Z,15.69
2022-10-23T09:30:40.495Z,15.75
2022-10-23T09:33:21.968Z,15.72
2022-10-23T09:36:18.379Z,15.84
2022-10-23T09:38:51.496Z,15.86
2022-10-23T09:41:38.770Z,15.86
2022-10-23T09:44:17.685Z,15.90
2022-10-23T09:46:46.862Z,15.92
2022-10-23T09:49:28.397Z,15.76
2022-10-23T09:52:11.830Z,16.01
2022-10-23T09:54:58.540Z,16.02
2022-10-23T09:57:38.261Z,16.18
2022-10-23T10:00:14.144Z,16.23
2022-10-23T10:02:54.572Z,16.31
2022-10-23T10:05:25.837Z,16.36
2022-10-23T10:08:27.579Z,16.42
2022-10-23T10:11:00.810Z,16.35
2022-10-23T10:13:33.436Z,16.48
2022-10-23T10:16:20.453Z,16.51
2022-10-23T10:19:02.693Z,16.52
2022-10-23T10:21:41.629Z,16.50
2022-10-23T10:24:17.207Z,16.56
2022-10-23T10:26:59.610Z,16.63
2022-10-23T10:29:58.895Z,16.71
2022-10-23T10:32:42.654Z,16.66
2022-10-23T10:35:22.526Z,16.89
2022-10-23T10:38:23.077Z,17.00
2022-10-23T10:41:14.450Z,17.07
2022-10-23T10:44:23.414Z,17.14
2022-10-23T10:47:13.246Z,17.20
2022-10-23T10:49:53.692Z,17.29
2022-10-23T10:52:49.379Z,17.40
2022-10-23T10:55:22.380Z,17.53
2022-10-23T10:57:59.978Z,17.47
2022-10-23T11:00:30.255Z,17.73
2022-10-23T11:03:18.510Z,17.86
2022-10-23T11:05:54.087Z,17.82
2022-10-23T11:08:56.180Z,17.84
2022-10-23T11:11:36.047Z,18.22
2022-10-23T11:14:03.944Z,18.31
2022-10-23T11:16:37.255Z,18.36
2022-10-23T11:19:27.431Z,18.52
2022-10-23T11:21:54.065Z,18.62
2022-10-23T11:24:23.541Z,18.73
2022-10-23T11:27:02.191Z,18.76
2022-10-23T11:29:51.752Z,18.83
2022-10-23T11:32:44.207Z,18.85
2022-10-23T11:35:25.998Z,18.86
2022-10-23T11:38:07.611Z,18.96
2022-10-23T11:40:34.776Z,19.16
2022-10-23T11:43:01.445Z,19.11
2022-10-23T11:45:36.105Z,19.34
2022-10-23T11:48:13.964Z,19.40
2022-10-23T11:50:46.854Z,19.49
2022-10-23T11:53:31.602Z,19.64
2022-10-23T11:56:06.730Z,19.58
2022-10-23T11:58:56.975Z,19.70
2022-10-23T12:01:45.803Z,19.60
2022-10-23T12:04:12.857Z,19.62
2022-10-23T12:06:58.045Z,19.61
2022-10-23T12:09:36.137Z,19.67
2022-10-23T12:12:08.144Z,19.71
2022-10-23T12:14:37.779Z,19.74
2022-10-23T12:17:23.841Z,19.57
2022-10-23T12:20:11.567Z,19.69
2022-10-23T12:23:15.089Z,19.71
2022-10-23T12:26:15.127Z,19.73
2022-10-23T12:29:03.140Z,19.76
2022-10-23T12:31:38.689Z,19.77
2022-10-23T12:34:32.080Z,19.78
2022-10-23T12:37:08.396Z,19.64
2022-10-23T12:39:37.546Z,19.77
2022-10-23T12:42:16.244Z,19.67
2022-10-23T12:44:45.074Z,19.80
2022-10-23T12:47:18.667Z,19.81
2022-10-23T12:49:50.176Z,19.85
2022-10-23T12:52:22.018Z,19.88
2022-10-23T12:54:50.939Z,19.88
2022-10-23T12:57:21.432Z,19.88
2022-10-23T12:59:50.904Z,19.89
2022-10-23T13:02:20.546Z,19.91
2022-10-23T13:04:50.145Z,19.94
2022-10-23T13:07:20.990Z,19.93
2022-10-23T13:09:48.258Z,19.92
2022-10-23T13:12:28.477Z,19.86
2022-10-23T13:15:00.177Z,19.81
2022-10-23T13:17:48.163Z,19.75
2022-10-23T13:20:18.022Z,19.86
2022-10-23T13:22:47.572Z,19.89
2022-10-23T13:25:41.039Z,19.88
2022-10-23T13:28:10.013Z,19.89
2022-10-23T13:30:40.349Z,19.91
2022-10-23T13:33:24.650Z,19.95
2022-10-23T13:36:04.068Z,19.94
2022-10-23T13:38:34.108Z,19.97
2022-10-23T13:41:02.273Z,19.94
2022-10-23T13:43:30.956Z,19.97
2022-10-23T13:45:59.278Z,19.99
2022-10-23T13:48:27.194Z,20.00
2022-10-23T13:50:54.900Z,20.02
2022-10-23T13:53:21.525Z,19.98
2022-10-23T13:55:57.780Z,19.94
2022-10-23T13:58:25.487Z,20.02
2022-10-23T14:00:53.217Z,20.09
2022-10-23T14:03:24.475Z,20.03
2022-10-23T14:05:51.892Z,19.97
2022-10-23T14:08:20.831Z,20.14
2022-10-23T14:10:47.480Z,20.01
2022-10-23T14:13:16.302Z,19.99
2022-10-23T14:15:43.112Z,19.99
2022-10-23T14:18:09.683Z,19.94
2022-10-23T14:20:39.349Z,20.08
2022-10-23T14:23:05.988Z,19.94
2022-10-23T14:25:37.261Z,20.05
2022-10-23T14:28:06.818Z,20.00
2022-10-23T14:30:35.671Z,19.94
2022-10-23T14:33:04.877Z,19.94
2022-10-23T14:35:31.589Z,19.92
2022-10-23T14:37:58.856Z,19.85
2022-10-23T14:40:27.875Z,19.80
2022-10-23T14:42:54.534Z,19.72
2022-10-23T14:45:21.324Z,19.64
2022-10-23T14:47:47.977Z,19.59
2022-10-23T14:50:15.956Z,19.45
2022-10-23T14:52:42.676Z,19.48
2022-10-23T14:55:09.581Z,19.32
2022-10-23T14:57:36.448Z,19.36
2022-10-23T15:00:04.489Z,19.22
2022-10-23T15:02:31.517Z,19.39
2022-10-23T15:04:58.271Z,19.34
2022-10-23T15:07:27.098Z,19.34
2022-10-23T15:09:53.797Z,19.10
2022-10-23T15:12:20.505Z,19.34
2022-10-23T15:14:47.531Z,19.31
2022-10-23T15:17:15.753Z,19.18
2022-10-23T15:19:45.143Z,19.23
2022-10-23T15:22:15.051Z,19.26
2022-10-23T15:24:41.707Z,19.22
2022-10-23T15:29:36.212Z,19.11
2022-10-23T15:32:05.269Z,18.94
2022-10-23T15:34:35.013Z,19.06
2022-10-23T15:37:04.330Z,19.02
2022-10-23T15:39:36.022Z,18.98
2022-10-23T15:42:05.343Z,18.82
2022-10-23T15:44:34.848Z,18.90
2022-10-23T15:47:01.557Z,18.87
2022-10-23T15:49:31.866Z,18.82
2022-10-23T15:52:00.847Z,18.80
2022-10-23T15:54:30.502Z,18.75
2022-10-23T15:56:59.367Z,18.74
2022-10-23T15:59:26.495Z,18.69
2022-10-23T16:01:56.696Z,18.63
2022-10-23T16:04:24.335Z,18.66
2022-10-23T16:06:50.982Z,18.65
2022-10-23T16:09:17.769Z,18.55
2022-10-23T16:11:44.522Z,18.60
2022-10-23T16:14:15.889Z,18.52
2022-10-23T16:16:43.362Z,18.44
2022-10-23T16:19:10.950Z,18.56
2022-10-23T16:21:37.666Z,18.51
2022-10-23T16:24:06.351Z,18.52
2022-10-23T16:26:33.911Z,18.50
2022-10-23T16:29:03.486Z,18.49
2022-10-23T16:31:30.318Z,18.45
2022-10-23T16:34:01.233Z,18.40
2022-10-23T16:36:28.809Z,18.25
2022-10-23T16:38:55.599Z,18.14
2022-10-23T16:41:24.776Z,18.29
2022-10-23T16:43:56.283Z,18.28
2022-10-23T16:46:23.086Z,18.24
2022-10-23T16:48:51.523Z,18.39
2022-10-23T16:51:21.376Z,18.21
2022-10-23T16:53:48.750Z,18.22
2022-10-23T16:56:18.896Z,18.35
2022-10-23T16:58:46.133Z,18.31
2022-10-23T17:01:25.030Z,18.19
2022-10-23T17:03:53.148Z,18.17
2022-10-23T17:06:26.034Z,18.23
2022-10-23T17:08:53.688Z,18.22
2022-10-23T17:11:21.697Z,18.03
2022-10-23T17:14:15.887Z,18.21
2022-10-23T17:16:47.722Z,18.21
2022-10-23T17:19:46.459Z,18.18
2022-10-23T17:22:10.677Z,18.15
2022-10-23T17:24:44.126Z,18.22
2022-10-23T17:27:13.132Z,18.21
2022-10-23T17:29:39.895Z,18.17
2022-10-23T17:32:09.079Z,18.11
2022-10-23T17:34:35.814Z,18.16
2022-10-23T17:37:04.968Z,18.09
2022-10-23T17:39:31.846Z,18.03
2022-10-23T17:41:59.089Z,18.18
2022-10-23T17:44:26.051Z,18.13
2022-10-23T17:46:55.133Z,17.98
2022-10-23T17:49:23.267Z,18.14
2022-10-23T17:51:55.893Z,18.12
2022-10-23T17:54:23.885Z,18.09
2022-10-23T17:56:50.750Z,18.05
2022-10-23T17:59:19.778Z,17.98
2022-10-23T18:01:48.621Z,18.00
2022-10-23T18:04:17.712Z,17.96
2022-10-23T18:06:48.103Z,17.78
2022-10-23T18:09:19.724Z,17.81
2022-10-23T18:11:48.234Z,17.87
2022-10-23T18:14:17.353Z,17.65
2022-10-23T18:16:45.838Z,17.59
2022-10-23T18:19:13.994Z,17.61
2022-10-23T18:21:40.803Z,17.73
2022-10-23T18:24:07.744Z,17.65
2022-10-23T18:26:35.342Z,17.57
2022-10-23T18:29:07.247Z,17.66
2022-10-23T18:31:35.992Z,17.66
2022-10-23T18:34:11.447Z,17.63
2022-10-23T18:36:43.475Z,17.55
2022-10-23T18:39:13.840Z,17.63
2022-10-23T18:41:43.302Z,17.72
2022-10-23T18:44:13.997Z,17.76
2022-10-23T18:46:40.980Z,17.76
2022-10-23T18:49:10.502Z,17.62
2022-10-23T18:51:39.931Z,17.79
2022-10-23T18:54:10.512Z,17.87
2022-10-23T18:56:39.904Z,17.89
2022-10-23T18:59:10.352Z,17.90
2022-10-23T19:01:39.908Z,17.92
2022-10-23T19:04:11.717Z,17.86
2022-10-23T19:06:39.029Z,18.01
2022-10-23T19:09:14.784Z,18.01
2022-10-23T19:11:42.556Z,18.04
2022-10-23T19:14:09.877Z,18.08
2022-10-23T19:16:58.627Z,18.10
2022-10-23T19:19:29.828Z,18.13
2022-10-23T19:21:57.053Z,18.07
2022-10-23T19:24:29.604Z,17.93
2022-10-23T19:26:57.902Z,18.03
2022-10-23T19:29:28.719Z,17.84
2022-10-23T19:31:55.863Z,17.92
2022-10-23T19:34:24.950Z,17.88
2022-10-23T19:36:55.980Z,17.89
2022-10-23T19:39:22.947Z,17.81
2022-10-23T19:41:51.669Z,17.79
2022-10-23T19:44:19.099Z,17.73
2022-10-23T19:46:45.965Z,17.69
2022-10-23T19:49:12.718Z,17.61
2022-10-23T19:51:39.662Z,17.51
2022-10-23T19:54:06.880Z,17.36
2022-10-23T19:56:33.541Z,17.38
2022-10-23T19:59:02.733Z,17.30
2022-10-23T20:01:29.612Z,17.12
2022-10-23T20:03:56.762Z,17.02
2022-10-23T20:06:26.948Z,17.15
2022-10-23T20:08:54.763Z,16.98
2022-10-23T20:11:28.381Z,17.07
2022-10-23T20:13:55.950Z,16.89
2022-10-23T20:16:28.965Z,16.91
2022-10-23T20:18:59.079Z,17.04
2022-10-23T20:21:26.146Z,16.93
2022-10-23T20:23:52.889Z,16.86
2022-10-23T20:26:24.089Z,16.97
2022-10-23T20:28:53.889Z,16.81
2022-10-23T20:31:22.396Z,16.89
2022-10-23T20:33:49.922Z,16.79
2022-10-23T20:36:26.858Z,16.66
2022-10-23T20:38:56.683Z,16.74
2022-10-23T20:41:26.085Z,16.70
2022-10-23T20:43:58.098Z,16.65
2022-10-23T20:46:24.840Z,16.69
2022-10-23T20:48:52.110Z,16.64
2022-10-23T20:51:20.981Z,16.47
2022-10-23T20:53:48.693Z,16.56
2022-10-23T20:56:30.053Z,16.57
2022-10-23T20:59:00.740Z,16.49
2022-10-23T21:01:28.369Z,16.62
2022-10-23T21:03:57.103Z,16.62
2022-10-23T21:06:41.030Z,16.39
2022-10-23T21:09:17.923Z,16.54
2022-10-23T21:11:44.645Z,16.49
2022-10-23T21:14:11.849Z,16.56
2022-10-23T21:16:44.720Z,16.54
2022-10-23T21:19:16.116Z,16.58
2022-10-23T21:21:43.671Z,16.62
2022-10-23T21:24:14.644Z,16.65
2022-10-23T21:26:41.813Z,16.68
2022-10-23T21:29:23.774Z,16.76
2022-10-23T21:32:01.619Z,16.80
2022-10-23T21:34:30.251Z,16.77
2022-10-23T21:37:12.604Z,16.64
2022-10-23T21:39:41.359Z,16.80
2022-10-23T21:42:08.242Z,16.82
2022-10-23T21:44:37.150Z,16.86
2022-10-23T21:47:06.161Z,16.82
2022-10-23T21:49:35.280Z,16.85
2022-10-23T21:52:04.225Z,16.79
2022-10-23T21:54:30.921Z,16.65
2022-10-23T21:56:57.767Z,16.77
2022-10-23T21:59:34.826Z,16.71
2022-10-23T22:02:02.587Z,16.64
2022-10-23T22:04:29.556Z,16.62
2022-10-23T22:06:56.301Z,16.60
2022-10-23T22:09:25.355Z,16.34
2022-10-23T22:11:53.788Z,16.34
2022-10-23T22:14:21.315Z,16.45
2022-10-23T22:16:48.093Z,16.37
2022-10-23T22:19:17.009Z,16.34
2022-10-23T22:21:46.234Z,16.35
2022-10-23T22:24:15.773Z,16.18
2022-10-23T22:26:46.281Z,16.36
2022-10-23T22:29:17.316Z,16.30
2022-10-23T22:31:48.780Z,16.24
2022-10-23T22:34:47.758Z,16.01
2022-10-23T22:37:10.637Z,16.23
2022-10-23T22:39:37.691Z,16.13
2022-10-23T22:42:07.004Z,16.17
2022-10-23T22:44:33.582Z,16.22
2022-10-23T22:47:00.312Z,16.15
2022-10-23T22:49:26.927Z,16.10
2022-10-23T22:51:53.777Z,16.29
2022-10-23T22:54:20.418Z,16.26
2022-10-23T22:56:47.241Z,16.15
2022-10-23T22:59:13.964Z,16.07
2022-10-23T23:01:44.292Z,16.10
2022-10-23T23:04:37.940Z,16.10
2022-10-23T23:07:05.228Z,15.97
2022-10-23T23:09:35.340Z,16.07
2022-10-23T23:12:01.919Z,15.97
2022-10-23T23:14:28.704Z,16.03
2022-10-23T23:16:55.985Z,16.02
2022-10-23T23:19:23.355Z,15.84
2022-10-23T23:21:50.314Z,15.97
2022-10-23T23:24:17.110Z,15.70
2022-10-23T23:26:43.870Z,15.87
2022-10-23T23:29:10.655Z,15.69
2022-10-23T23:31:39.746Z,15.93
2022-10-23T23:34:06.527Z,15.87
2022-10-23T23:36:33.969Z,15.73
2022-10-23T23:39:01.283Z,15.89
2022-10-23T23:41:29.012Z,15.91
2022-10-23T23:43:57.555Z,15.76
2022-10-23T23:46:24.891Z,15.85
2022-10-23T23:48:51.647Z,15.83
2022-10-23T23:51:22.934Z,15.84
2022-10-23T23:53:52.788Z,15.83
2022-10-23T23:56:19.890Z,15.76
2022-10-23T23:58:49.317Z,15.65
